sensor_id;sensor_type;location;lat;lon;timestamp;pressure;altitude;pressure_sealevel;temperature;humidity
58662;BME280;44432;49.786;22.760;2022-09-13T00:02:11;99126.21;;;11.50;85.26
58662;BME280;44432;49.786;22.760;2022-09-13T00:04:41;99130.52;;;11.51;85.17
58662;BME280;44432;49.786;22.760;2022-09-13T00:07:12;99131.95;;;11.50;85.17
58662;BME280;44432;49.786;22.760;2022-09-13T00:09:43;99127.12;;;11.50;85.22
58662;BME280;44432;49.786;22.760;2022-09-13T00:12:13;99128.36;;;11.51;85.45
58662;BME280;44432;49.786;22.760;2022-09-13T00:14:45;99125.35;;;11.55;85.49
58662;BME280;44432;49.786;22.760;2022-09-13T00:17:15;99127.28;;;11.56;85.29
58662;BME280;44432;49.786;22.760;2022-09-13T00:19:47;99131.09;;;11.57;85.29
58662;BME280;44432;49.786;22.760;2022-09-13T00:22:17;99133.00;;;11.57;85.20
58662;BME280;44432;49.786;22.760;2022-09-13T00:24:48;99131.20;;;11.58;85.08
58662;BME280;44432;49.786;22.760;2022-09-13T00:27:18;99131.08;;;11.57;85.35
58662;BME280;44432;49.786;22.760;2022-09-13T00:29:49;99131.98;;;11.57;84.95
58662;BME280;44432;49.786;22.760;2022-09-13T00:32:19;99132.35;;;11.57;85.20
58662;BME280;44432;49.786;22.760;2022-09-13T00:34:50;99131.07;;;11.59;85.52
58662;BME280;44432;49.786;22.760;2022-09-13T00:37:21;99126.06;;;11.59;85.16
58662;BME280;44432;49.786;22.760;2022-09-13T00:39:51;99118.57;;;11.60;85.23
58662;BME280;44432;49.786;22.760;2022-09-13T00:42:26;99123.86;;;11.60;84.87
58662;BME280;44432;49.786;22.760;2022-09-13T00:45:00;99120.32;;;11.60;85.01
58662;BME280;44432;49.786;22.760;2022-09-13T00:47:36;99123.17;;;11.60;85.26
58662;BME280;44432;49.786;22.760;2022-09-13T00:50:13;99126.52;;;11.59;85.03
58662;BME280;44432;49.786;22.760;2022-09-13T00:52:49;99128.54;;;11.57;85.13
58662;BME280;44432;49.786;22.760;2022-09-13T00:55:25;99133.59;;;11.56;85.06
58662;BME280;44432;49.786;22.760;2022-09-13T00:58:00;99139.05;;;11.55;85.25
58662;BME280;44432;49.786;22.760;2022-09-13T01:00:32;99137.23;;;11.54;85.05
58662;BME280;44432;49.786;22.760;2022-09-13T01:03:04;99133.91;;;11.53;85.18
58662;BME280;44432;49.786;22.760;2022-09-13T01:05:40;99128.02;;;11.52;85.28
58662;BME280;44432;49.786;22.760;2022-09-13T01:08:12;99130.20;;;11.54;85.11
58662;BME280;44432;49.786;22.760;2022-09-13T01:10:52;99129.55;;;11.54;85.35
58662;BME280;44432;49.786;22.760;2022-09-13T01:13:25;99136.92;;;11.53;85.40
58662;BME280;44432;49.786;22.760;2022-09-13T01:15:57;99138.26;;;11.53;85.40
58662;BME280;44432;49.786;22.760;2022-09-13T01:18:28;99133.25;;;11.54;85.03
58662;BME280;44432;49.786;22.760;2022-09-13T01:21:26;99138.36;;;11.55;85.24
58662;BME280;44432;49.786;22.760;2022-09-13T01:24:17;99140.55;;;11.56;85.18
58662;BME280;44432;49.786;22.760;2022-09-13T01:27:16;99141.77;;;11.56;84.95
58662;BME280;44432;49.786;22.760;2022-09-13T01:30:22;99137.61;;;11.53;84.99
58662;BME280;44432;49.786;22.760;2022-09-13T01:33:13;99142.63;;;11.52;85.21
58662;BME280;44432;49.786;22.760;2022-09-13T01:38:50;99147.88;;;11.51;85.13
58662;BME280;44432;49.786;22.760;2022-09-13T01:41:36;99157.54;;;11.50;85.04
58662;BME280;44432;49.786;22.760;2022-09-13T01:44:20;99154.38;;;11.49;84.93
58662;BME280;44432;49.786;22.760;2022-09-13T01:47:01;99159.92;;;11.47;84.79
58662;BME280;44432;49.786;22.760;2022-09-13T01:49:37;99153.07;;;11.46;85.11
58662;BME280;44432;49.786;22.760;2022-09-13T01:52:17;99147.66;;;11.45;84.99
58662;BME280;44432;49.786;22.760;2022-09-13T01:54:55;99138.75;;;11.46;85.06
58662;BME280;44432;49.786;22.760;2022-09-13T01:57:30;99136.59;;;11.46;85.00
58662;BME280;44432;49.786;22.760;2022-09-13T02:00:05;99135.77;;;11.46;84.94
58662;BME280;44432;49.786;22.760;2022-09-13T02:02:40;99128.95;;;11.45;84.95
58662;BME280;44432;49.786;22.760;2022-09-13T02:05:16;99123.10;;;11.45;84.97
58662;BME280;44432;49.786;22.760;2022-09-13T02:07:54;99120.86;;;11.45;85.14
58662;BME280;44432;49.786;22.760;2022-09-13T02:10:30;99114.61;;;11.44;84.99
58662;BME280;44432;49.786;22.760;2022-09-13T02:13:07;99117.08;;;11.44;85.01
58662;BME280;44432;49.786;22.760;2022-09-13T02:15:42;99110.47;;;11.43;84.98
58662;BME280;44432;49.786;22.760;2022-09-13T02:18:17;99115.86;;;11.41;84.94
58662;BME280;44432;49.786;22.760;2022-09-13T02:20:52;99122.74;;;11.40;84.89
58662;BME280;44432;49.786;22.760;2022-09-13T02:23:28;99125.58;;;11.37;85.20
58662;BME280;44432;49.786;22.760;2022-09-13T02:26:03;99119.42;;;11.35;85.36
58662;BME280;44432;49.786;22.760;2022-09-13T02:28:38;99122.63;;;11.36;85.16
58662;BME280;44432;49.786;22.760;2022-09-13T02:31:12;99126.95;;;11.35;85.48
58662;BME280;44432;49.786;22.760;2022-09-13T02:33:50;99121.87;;;11.35;85.15
58662;BME280;44432;49.786;22.760;2022-09-13T02:36:25;99118.98;;;11.34;85.37
58662;BME280;44432;49.786;22.760;2022-09-13T02:39:01;99122.84;;;11.32;85.21
58662;BME280;44432;49.786;22.760;2022-09-13T02:41:36;99122.90;;;11.30;85.21
58662;BME280;44432;49.786;22.760;2022-09-13T02:44:12;99114.86;;;11.29;85.34
58662;BME280;44432;49.786;22.760;2022-09-13T02:47:05;99111.30;;;11.28;85.27
58662;BME280;44432;49.786;22.760;2022-09-13T02:49:51;99116.92;;;11.27;85.25
58662;BME280;44432;49.786;22.760;2022-09-13T02:52:33;99116.66;;;11.25;85.38
58662;BME280;44432;49.786;22.760;2022-09-13T02:55:14;99115.45;;;11.23;85.16
58662;BME280;44432;49.786;22.760;2022-09-13T02:57:52;99115.02;;;11.23;85.25
58662;BME280;44432;49.786;22.760;2022-09-13T03:00:27;99114.80;;;11.21;85.38
58662;BME280;44432;49.786;22.760;2022-09-13T03:03:03;99108.52;;;11.19;85.58
58662;BME280;44432;49.786;22.760;2022-09-13T03:05:35;99107.55;;;11.17;85.26
58662;BME280;44432;49.786;22.760;2022-09-13T03:08:06;99103.64;;;11.15;85.30
58662;BME280;44432;49.786;22.760;2022-09-13T03:10:50;99100.77;;;11.13;85.50
58662;BME280;44432;49.786;22.760;2022-09-13T03:13:35;99100.52;;;11.09;85.51
58662;BME280;44432;49.786;22.760;2022-09-13T03:16:22;99098.41;;;11.06;85.45
58662;BME280;44432;49.786;22.760;2022-09-13T03:19:10;99094.39;;;11.02;85.58
58662;BME280;44432;49.786;22.760;2022-09-13T03:21:56;99095.52;;;10.98;85.58
58662;BME280;44432;49.786;22.760;2022-09-13T03:24:37;99096.13;;;10.95;85.63
58662;BME280;44432;49.786;22.760;2022-09-13T03:27:20;99094.54;;;10.91;85.66
58662;BME280;44432;49.786;22.760;2022-09-13T03:30:01;99094.18;;;10.87;85.93
58662;BME280;44432;49.786;22.760;2022-09-13T03:32:40;99096.33;;;10.84;85.75
58662;BME280;44432;49.786;22.760;2022-09-13T03:35:20;99099.55;;;10.80;85.93
58662;BME280;44432;49.786;22.760;2022-09-13T03:37:58;99096.77;;;10.78;86.23
58662;BME280;44432;49.786;22.760;2022-09-13T03:40:37;99096.48;;;10.75;86.22
58662;BME280;44432;49.786;22.760;2022-09-13T03:43:13;99095.88;;;10.74;86.30
58662;BME280;44432;49.786;22.760;2022-09-13T03:45:47;99090.64;;;10.74;86.35
58662;BME280;44432;49.786;22.760;2022-09-13T03:48:19;99093.90;;;10.73;86.43
58662;BME280;44432;49.786;22.760;2022-09-13T03:50:51;99095.45;;;10.74;86.53
58662;BME280;44432;49.786;22.760;2022-09-13T03:53:26;99094.55;;;10.74;86.82
58662;BME280;44432;49.786;22.760;2022-09-13T03:55:57;99095.67;;;10.74;86.51
58662;BME280;44432;49.786;22.760;2022-09-13T03:58:28;99097.34;;;10.75;86.84
58662;BME280;44432;49.786;22.760;2022-09-13T04:00:59;99098.98;;;10.76;86.85
58662;BME280;44432;49.786;22.760;2022-09-13T04:03:30;99101.71;;;10.77;86.92
58662;BME280;44432;49.786;22.760;2022-09-13T04:06:00;99100.83;;;10.79;87.06
58662;BME280;44432;49.786;22.760;2022-09-13T04:08:31;99095.54;;;10.80;87.31
58662;BME280;44432;49.786;22.760;2022-09-13T04:11:02;99095.80;;;10.82;87.27
58662;BME280;44432;49.786;22.760;2022-09-13T04:13:32;99092.65;;;10.85;87.25
58662;BME280;44432;49.786;22.760;2022-09-13T04:16:04;99092.53;;;10.88;87.28
58662;BME280;44432;49.786;22.760;2022-09-13T04:18:35;99089.71;;;10.91;87.42
58662;BME280;44432;49.786;22.760;2022-09-13T04:21:06;99093.02;;;10.92;87.15
58662;BME280;44432;49.786;22.760;2022-09-13T04:23:36;99092.27;;;10.94;87.23
58662;BME280;44432;49.786;22.760;2022-09-13T04:26:08;99091.33;;;10.95;87.25
58662;BME280;44432;49.786;22.760;2022-09-13T04:28:38;99092.33;;;10.97;87.24
58662;BME280;44432;49.786;22.760;2022-09-13T04:31:09;99098.41;;;10.99;87.41
58662;BME280;44432;49.786;22.760;2022-09-13T04:33:40;99092.21;;;11.00;87.34
58662;BME280;44432;49.786;22.760;2022-09-13T04:36:10;99091.80;;;11.04;87.48
58662;BME280;44432;49.786;22.760;2022-09-13T04:38:41;99090.17;;;11.08;87.47
58662;BME280;44432;49.786;22.760;2022-09-13T04:41:11;99090.68;;;11.13;87.47
58662;BME280;44432;49.786;22.760;2022-09-13T04:43:42;99087.11;;;11.20;87.36
58662;BME280;44432;49.786;22.760;2022-09-13T04:46:12;99086.36;;;11.26;87.51
58662;BME280;44432;49.786;22.760;2022-09-13T04:48:44;99086.66;;;11.31;87.15
58662;BME280;44432;49.786;22.760;2022-09-13T04:51:18;99080.98;;;11.36;86.97
58662;BME280;44432;49.786;22.760;2022-09-13T04:53:53;99078.96;;;11.41;86.86
58662;BME280;44432;49.786;22.760;2022-09-13T04:56:27;99080.80;;;11.45;86.85
58662;BME280;44432;49.786;22.760;2022-09-13T04:58:57;99078.27;;;11.50;86.85
58662;BME280;44432;49.786;22.760;2022-09-13T05:01:28;99079.60;;;11.54;86.97
58662;BME280;44432;49.786;22.760;2022-09-13T05:03:58;99079.13;;;11.56;86.68
58662;BME280;44432;49.786;22.760;2022-09-13T05:06:29;99083.27;;;11.59;86.62
58662;BME280;44432;49.786;22.760;2022-09-13T05:09:00;99085.92;;;11.61;86.67
58662;BME280;44432;49.786;22.760;2022-09-13T05:11:31;99083.80;;;11.65;86.59
58662;BME280;44432;49.786;22.760;2022-09-13T05:14:02;99083.92;;;11.69;86.56
58662;BME280;44432;49.786;22.760;2022-09-13T05:16:34;99083.73;;;11.72;86.26
58662;BME280;44432;49.786;22.760;2022-09-13T05:19:04;99083.27;;;11.74;86.24
58662;BME280;44432;49.786;22.760;2022-09-13T05:21:35;99082.23;;;11.76;86.18
58662;BME280;44432;49.786;22.760;2022-09-13T05:24:05;99080.00;;;11.76;86.16
58662;BME280;44432;49.786;22.760;2022-09-13T05:26:36;99082.97;;;11.76;85.93
58662;BME280;44432;49.786;22.760;2022-09-13T05:29:07;99082.24;;;11.77;85.86
58662;BME280;44432;49.786;22.760;2022-09-13T05:31:40;99083.30;;;11.78;85.89
58662;BME280;44432;49.786;22.760;2022-09-13T05:34:12;99085.77;;;11.78;85.83
58662;BME280;44432;49.786;22.760;2022-09-13T05:36:43;99083.38;;;11.77;85.84
58662;BME280;44432;49.786;22.760;2022-09-13T05:39:14;99084.02;;;11.78;85.92
58662;BME280;44432;49.786;22.760;2022-09-13T05:41:46;99076.21;;;11.77;85.65
58662;BME280;44432;49.786;22.760;2022-09-13T05:44:16;99074.84;;;11.77;85.80
58662;BME280;44432;49.786;22.760;2022-09-13T05:46:48;99075.77;;;11.77;86.13
58662;BME280;44432;49.786;22.760;2022-09-13T05:49:19;99073.48;;;11.79;85.82
58662;BME280;44432;49.786;22.760;2022-09-13T05:51:49;99074.88;;;11.80;85.91
58662;BME280;44432;49.786;22.760;2022-09-13T05:54:20;99070.52;;;11.84;85.74
58662;BME280;44432;49.786;22.760;2022-09-13T05:56:50;99070.60;;;11.87;85.51
58662;BME280;44432;49.786;22.760;2022-09-13T05:59:22;99066.74;;;11.91;85.69
58662;BME280;44432;49.786;22.760;2022-09-13T06:01:52;99068.70;;;11.97;85.70
58662;BME280;44432;49.786;22.760;2022-09-13T06:04:23;99068.79;;;12.05;85.65
58662;BME280;44432;49.786;22.760;2022-09-13T06:06:54;99065.33;;;12.12;85.57
58662;BME280;44432;49.786;22.760;2022-09-13T06:09:24;99067.66;;;12.22;85.33
58662;BME280;44432;49.786;22.760;2022-09-13T06:11:55;99064.67;;;12.31;85.09
58662;BME280;44432;49.786;22.760;2022-09-13T06:14:25;99063.55;;;12.40;84.92
58662;BME280;44432;49.786;22.760;2022-09-13T06:16:56;99064.05;;;12.49;84.69
58662;BME280;44432;49.786;22.760;2022-09-13T06:19:27;99062.00;;;12.57;84.34
58662;BME280;44432;49.786;22.760;2022-09-13T06:21:58;99063.83;;;12.60;83.86
58662;BME280;44432;49.786;22.760;2022-09-13T06:24:28;99067.14;;;12.64;83.71
58662;BME280;44432;49.786;22.760;2022-09-13T06:26:59;99066.56;;;12.69;83.72
58662;BME280;44432;49.786;22.760;2022-09-13T06:29:29;99072.45;;;12.74;83.37
58662;BME280;44432;49.786;22.760;2022-09-13T06:32:00;99074.09;;;12.76;83.05
58662;BME280;44432;49.786;22.760;2022-09-13T06:34:30;99070.44;;;12.77;82.75
58662;BME280;44432;49.786;22.760;2022-09-13T06:37:01;99068.73;;;12.77;82.64
58662;BME280;44432;49.786;22.760;2022-09-13T06:39:33;99070.70;;;12.76;82.35
58662;BME280;44432;49.786;22.760;2022-09-13T06:42:04;99073.42;;;12.74;82.28
58662;BME280;44432;49.786;22.760;2022-09-13T06:44:34;99073.94;;;12.76;82.05
58662;BME280;44432;49.786;22.760;2022-09-13T06:47:05;99075.48;;;12.81;82.15
58662;BME280;44432;49.786;22.760;2022-09-13T06:49:36;99078.71;;;12.91;82.05
58662;BME280;44432;49.786;22.760;2022-09-13T06:52:07;99079.09;;;13.01;81.93
58662;BME280;44432;49.786;22.760;2022-09-13T06:54:38;99080.48;;;13.09;81.66
58662;BME280;44432;49.786;22.760;2022-09-13T06:57:09;99088.88;;;13.15;81.35
58662;BME280;44432;49.786;22.760;2022-09-13T06:59:39;99088.13;;;13.19;80.98
58662;BME280;44432;49.786;22.760;2022-09-13T07:02:11;99088.27;;;13.26;80.83
58662;BME280;44432;49.786;22.760;2022-09-13T07:04:42;99084.92;;;13.34;80.50
58662;BME280;44432;49.786;22.760;2022-09-13T07:07:13;99082.23;;;13.44;80.10
58662;BME280;44432;49.786;22.760;2022-09-13T07:09:43;99080.11;;;13.60;79.70
58662;BME280;44432;49.786;22.760;2022-09-13T07:12:14;99082.70;;;13.80;79.42
58662;BME280;44432;49.786;22.760;2022-09-13T07:14:44;99083.77;;;14.01;79.10
58662;BME280;44432;49.786;22.760;2022-09-13T07:17:15;99080.77;;;14.18;78.81
58662;BME280;44432;49.786;22.760;2022-09-13T07:19:45;99078.61;;;14.35;78.42
58662;BME280;44432;49.786;22.760;2022-09-13T07:22:16;99080.81;;;14.48;77.81
58662;BME280;44432;49.786;22.760;2022-09-13T07:24:46;99082.44;;;14.59;77.74
58662;BME280;44432;49.786;22.760;2022-09-13T07:27:17;99081.52;;;14.65;77.28
58662;BME280;44432;49.786;22.760;2022-09-13T07:29:47;99081.98;;;14.72;76.86
58662;BME280;44432;49.786;22.760;2022-09-13T07:32:18;99080.83;;;14.83;76.63
58662;BME280;44432;49.786;22.760;2022-09-13T07:34:49;99076.06;;;15.01;76.52
58662;BME280;44432;49.786;22.760;2022-09-13T07:37:19;99076.36;;;15.20;76.39
58662;BME280;44432;49.786;22.760;2022-09-13T07:39:50;99073.20;;;15.39;76.08
58662;BME280;44432;49.786;22.760;2022-09-13T07:42:20;99075.61;;;15.55;75.18
58662;BME280;44432;49.786;22.760;2022-09-13T07:44:51;99074.66;;;15.59;74.16
58662;BME280;44432;49.786;22.760;2022-09-13T07:47:21;99075.05;;;15.63;74.09
58662;BME280;44432;49.786;22.760;2022-09-13T07:49:52;99073.58;;;15.75;73.93
58662;BME280;44432;49.786;22.760;2022-09-13T07:52:22;99073.02;;;15.87;73.57
58662;BME280;44432;49.786;22.760;2022-09-13T07:54:53;99067.84;;;15.98;73.11
58662;BME280;44432;49.786;22.760;2022-09-13T07:57:24;99071.89;;;16.10;72.13
58662;BME280;44432;49.786;22.760;2022-09-13T07:59:56;99067.39;;;16.19;71.78
58662;BME280;44432;49.786;22.760;2022-09-13T08:02:27;99072.45;;;16.25;71.64
58662;BME280;44432;49.786;22.760;2022-09-13T08:04:58;99076.86;;;16.37;71.42
58662;BME280;44432;49.786;22.760;2022-09-13T08:07:28;99078.82;;;16.43;70.86
58662;BME280;44432;49.786;22.760;2022-09-13T08:10:01;99077.70;;;16.50;70.74
58662;BME280;44432;49.786;22.760;2022-09-13T08:12:31;99075.36;;;16.58;70.77
58662;BME280;44432;49.786;22.760;2022-09-13T08:15:02;99075.77;;;16.70;70.61
58662;BME280;44432;49.786;22.760;2022-09-13T08:17:33;99075.41;;;16.82;70.27
58662;BME280;44432;49.786;22.760;2022-09-13T08:20:04;99074.85;;;16.87;69.35
58662;BME280;44432;49.786;22.760;2022-09-13T08:22:34;99074.39;;;16.90;69.31
58662;BME280;44432;49.786;22.760;2022-09-13T08:25:06;99068.89;;;17.00;69.19
58662;BME280;44432;49.786;22.760;2022-09-13T08:27:37;99067.66;;;17.09;68.58
58662;BME280;44432;49.786;22.760;2022-09-13T08:30:10;99063.00;;;17.05;67.85
58662;BME280;44432;49.786;22.760;2022-09-13T08:32:41;99062.09;;;17.05;68.13
58662;BME280;44432;49.786;22.760;2022-09-13T08:35:11;99061.89;;;17.07;67.85
58662;BME280;44432;49.786;22.760;2022-09-13T08:37:42;99058.49;;;17.12;67.64
58662;BME280;44432;49.786;22.760;2022-09-13T08:40:13;99057.09;;;17.20;67.62
58662;BME280;44432;49.786;22.760;2022-09-13T08:42:52;99055.20;;;17.28;67.63
58662;BME280;44432;49.786;22.760;2022-09-13T08:45:23;99054.52;;;17.34;67.25
58662;BME280;44432;49.786;22.760;2022-09-13T08:47:57;99059.83;;;17.37;66.94
58662;BME280;44432;49.786;22.760;2022-09-13T08:50:33;99057.21;;;17.37;66.20
58662;BME280;44432;49.786;22.760;2022-09-13T08:53:14;99053.65;;;17.29;65.71
58662;BME280;44432;49.786;22.760;2022-09-13T08:56:00;99051.58;;;17.29;65.93
58662;BME280;44432;49.786;22.760;2022-09-13T08:58:43;99056.45;;;17.34;65.62
58662;BME280;44432;49.786;22.760;2022-09-13T09:01:25;99057.25;;;17.34;65.06
58662;BME280;44432;49.786;22.760;2022-09-13T09:04:04;99052.60;;;17.34;64.79
58662;BME280;44432;49.786;22.760;2022-09-13T09:06:36;99053.23;;;17.31;63.73
58662;BME280;44432;49.786;22.760;2022-09-13T09:09:09;99051.77;;;17.15;63.74
58662;BME280;44432;49.786;22.760;2022-09-13T09:11:48;99051.92;;;17.09;64.00
58662;BME280;44432;49.786;22.760;2022-09-13T09:14:26;99051.58;;;17.05;64.02
58662;BME280;44432;49.786;22.760;2022-09-13T09:17:02;99046.04;;;17.04;63.92
58662;BME280;44432;49.786;22.760;2022-09-13T09:19:37;99048.80;;;17.17;64.09
58662;BME280;44432;49.786;22.760;2022-09-13T09:22:15;99046.64;;;17.37;63.87
58662;BME280;44432;49.786;22.760;2022-09-13T09:24:49;99044.19;;;17.55;63.44
58662;BME280;44432;49.786;22.760;2022-09-13T09:27:21;99044.33;;;17.68;63.04
58662;BME280;44432;49.786;22.760;2022-09-13T09:29:54;99045.41;;;17.82;62.55
58662;BME280;44432;49.786;22.760;2022-09-13T09:32:42;99044.84;;;17.93;62.00
58662;BME280;44432;49.786;22.760;2022-09-13T09:35:25;99045.27;;;17.87;60.55
58662;BME280;44432;49.786;22.760;2022-09-13T09:38:12;99036.11;;;17.75;60.60
58662;BME280;44432;49.786;22.760;2022-09-13T09:40:47;99036.80;;;17.75;60.33
58662;BME280;44432;49.786;22.760;2022-09-13T09:43:29;99029.70;;;17.70;59.78
58662;BME280;44432;49.786;22.760;2022-09-13T09:46:04;99032.14;;;17.62;59.81
58662;BME280;44432;49.786;22.760;2022-09-13T09:48:42;99029.82;;;17.54;59.67
58662;BME280;44432;49.786;22.760;2022-09-13T09:51:15;99027.41;;;17.52;60.40
58662;BME280;44432;49.786;22.760;2022-09-13T09:53:51;99026.66;;;17.52;59.95
58662;BME280;44432;49.786;22.760;2022-09-13T09:56:26;99022.84;;;17.39;59.37
58662;BME280;44432;49.786;22.760;2022-09-13T09:58:58;99019.11;;;17.23;59.63
58662;BME280;44432;49.786;22.760;2022-09-13T10:01:31;99018.78;;;17.21;59.58
58662;BME280;44432;49.786;22.760;2022-09-13T10:04:14;99020.23;;;17.09;59.85
58662;BME280;44432;49.786;22.760;2022-09-13T10:06:47;99018.23;;;17.04;60.22
58662;BME280;44432;49.786;22.760;2022-09-13T10:09:19;99011.20;;;17.04;60.25
58662;BME280;44432;49.786;22.760;2022-09-13T10:11:52;99006.51;;;17.04;60.55
58662;BME280;44432;49.786;22.760;2022-09-13T10:14:35;99011.96;;;17.11;60.29
58662;BME280;44432;49.786;22.760;2022-09-13T10:17:15;99007.48;;;17.11;59.66
58662;BME280;44432;49.786;22.760;2022-09-13T10:19:57;99004.44;;;17.08;59.59
58662;BME280;44432;49.786;22.760;2022-09-13T10:22:30;98999.41;;;17.04;59.42
58662;BME280;44432;49.786;22.760;2022-09-13T10:25:17;98998.19;;;17.05;59.72
58662;BME280;44432;49.786;22.760;2022-09-13T10:27:52;98994.81;;;17.18;59.77
58662;BME280;44432;49.786;22.760;2022-09-13T10:30:32;98988.35;;;17.32;59.64
58662;BME280;44432;49.786;22.760;2022-09-13T10:33:07;98988.65;;;17.46;58.74
58662;BME280;44432;49.786;22.760;2022-09-13T10:35:51;98983.81;;;17.60;57.64
58662;BME280;44432;49.786;22.760;2022-09-13T10:38:27;98980.67;;;17.72;57.41
58662;BME280;44432;49.786;22.760;2022-09-13T10:41:00;98980.26;;;17.90;56.63
58662;BME280;44432;49.786;22.760;2022-09-13T10:43:33;98980.52;;;18.09;55.95
58662;BME280;44432;49.786;22.760;2022-09-13T10:46:06;98981.00;;;18.14;55.17
58662;BME280;44432;49.786;22.760;2022-09-13T10:48:48;98975.48;;;18.26;55.36
58662;BME280;44432;49.786;22.760;2022-09-13T10:51:35;98975.77;;;18.42;55.54
58662;BME280;44432;49.786;22.760;2022-09-13T10:54:23;98979.38;;;18.51;54.30
58662;BME280;44432;49.786;22.760;2022-09-13T10:56:54;98972.90;;;18.53;53.00
58662;BME280;44432;49.786;22.760;2022-09-13T10:59:26;98975.86;;;18.47;51.78
58662;BME280;44432;49.786;22.760;2022-09-13T11:02:21;98974.97;;;18.43;51.74
58662;BME280;44432;49.786;22.760;2022-09-13T11:05:13;98970.30;;;18.50;52.39
58662;BME280;44432;49.786;22.760;2022-09-13T11:08:12;98964.33;;;18.67;52.59
58662;BME280;44432;49.786;22.760;2022-09-13T11:10:56;98958.44;;;18.92;52.23
58662;BME280;44432;49.786;22.760;2022-09-13T11:13:38;98952.35;;;19.21;51.56
58662;BME280;44432;49.786;22.760;2022-09-13T11:16:24;98951.41;;;19.44;51.45
58662;BME280;44432;49.786;22.760;2022-09-13T11:19:07;98953.94;;;19.62;51.14
58662;BME280;44432;49.786;22.760;2022-09-13T11:21:49;98954.58;;;19.76;50.18
58662;BME280;44432;49.786;22.760;2022-09-13T11:24:34;98953.27;;;19.82;49.72
58662;BME280;44432;49.786;22.760;2022-09-13T11:27:16;98946.76;;;19.85;49.65
58662;BME280;44432;49.786;22.760;2022-09-13T11:30:02;98946.11;;;19.86;49.32
58662;BME280;44432;49.786;22.760;2022-09-13T11:33:00;98942.58;;;19.86;48.97
58662;BME280;44432;49.786;22.760;2022-09-13T11:35:50;98939.78;;;19.71;48.71
58662;BME280;44432;49.786;22.760;2022-09-13T11:38:36;98938.42;;;19.50;48.58
58662;BME280;44432;49.786;22.760;2022-09-13T11:41:15;98936.49;;;19.41;48.70
58662;BME280;44432;49.786;22.760;2022-09-13T11:44:09;98939.42;;;19.36;48.96
58662;BME280;44432;49.786;22.760;2022-09-13T11:46:43;98938.86;;;19.39;49.34
58662;BME280;44432;49.786;22.760;2022-09-13T11:49:32;98934.23;;;19.41;49.11
58662;BME280;44432;49.786;22.760;2022-09-13T11:52:16;98934.59;;;19.44;49.11
58662;BME280;44432;49.786;22.760;2022-09-13T11:54:58;98933.98;;;19.48;48.53
58662;BME280;44432;49.786;22.760;2022-09-13T11:57:34;98932.42;;;19.48;48.58
58662;BME280;44432;49.786;22.760;2022-09-13T12:00:13;98930.13;;;19.47;48.34
58662;BME280;44432;49.786;22.760;2022-09-13T12:02:48;98923.86;;;19.49;48.66
58662;BME280;44432;49.786;22.760;2022-09-13T12:05:23;98920.70;;;19.52;48.64
58662;BME280;44432;49.786;22.760;2022-09-13T12:07:58;98921.23;;;19.51;47.91
58662;BME280;44432;49.786;22.760;2022-09-13T12:10:44;98921.09;;;19.45;46.78
58662;BME280;44432;49.786;22.760;2022-09-13T12:13:21;98915.55;;;19.41;46.43
58662;BME280;44432;49.786;22.760;2022-09-13T12:15:56;98911.61;;;19.46;46.50
58662;BME280;44432;49.786;22.760;2022-09-13T12:18:30;98906.66;;;19.48;45.67
58662;BME280;44432;49.786;22.760;2022-09-13T12:21:07;98905.58;;;19.43;45.62
58662;BME280;44432;49.786;22.760;2022-09-13T12:23:42;98904.73;;;19.44;46.19
58662;BME280;44432;49.786;22.760;2022-09-13T12:26:19;98902.95;;;19.52;46.45
58662;BME280;44432;49.786;22.760;2022-09-13T12:28:54;98904.08;;;19.61;46.32
58662;BME280;44432;49.786;22.760;2022-09-13T12:31:27;98907.73;;;19.62;45.86
58662;BME280;44432;49.786;22.760;2022-09-13T12:33:59;98906.40;;;19.60;45.93
58662;BME280;44432;49.786;22.760;2022-09-13T12:36:59;98897.34;;;19.53;45.91
58662;BME280;44432;49.786;22.760;2022-09-13T12:39:58;98894.37;;;19.63;46.32
58662;BME280;44432;49.786;22.760;2022-09-13T12:45:44;98885.75;;;20.00;45.62
58662;BME280;44432;49.786;22.760;2022-09-13T12:48:34;98880.99;;;20.19;45.51
58662;BME280;44432;49.786;22.760;2022-09-13T12:51:13;98879.15;;;20.37;44.73
58662;BME280;44432;49.786;22.760;2022-09-13T12:54:13;98877.31;;;20.52;44.63
58662;BME280;44432;49.786;22.760;2022-09-13T12:57:02;98874.04;;;20.67;44.60
58662;BME280;44432;49.786;22.760;2022-09-13T12:59:50;98871.87;;;20.72;43.92
58662;BME280;44432;49.786;22.760;2022-09-13T13:02:28;98872.65;;;20.70;43.75
58662;BME280;44432;49.786;22.760;2022-09-13T13:05:04;98870.66;;;20.74;43.88
58662;BME280;44432;49.786;22.760;2022-09-13T13:07:37;98874.00;;;20.73;43.43
58662;BME280;44432;49.786;22.760;2022-09-13T13:10:25;98880.31;;;20.70;43.22
58662;BME280;44432;49.786;22.760;2022-09-13T13:13:10;98879.10;;;20.69;42.80
58662;BME280;44432;49.786;22.760;2022-09-13T13:18:50;98868.64;;;20.31;42.57
58662;BME280;44432;49.786;22.760;2022-09-13T13:21:36;98865.31;;;20.31;43.35
58662;BME280;44432;49.786;22.760;2022-09-13T13:24:41;98863.38;;;20.43;43.48
58662;BME280;44432;49.786;22.760;2022-09-13T13:27:35;98858.66;;;20.60;43.64
58662;BME280;44432;49.786;22.760;2022-09-13T13:33:27;98853.59;;;20.96;43.47
58662;BME280;44432;49.786;22.760;2022-09-13T13:36:23;98849.91;;;21.05;42.93
58662;BME280;44432;49.786;22.760;2022-09-13T13:38:56;98851.30;;;21.02;42.29
58662;BME280;44432;49.786;22.760;2022-09-13T13:41:52;98852.90;;;20.81;41.91
58662;BME280;44432;49.786;22.760;2022-09-13T13:44:57;98852.66;;;20.56;42.45
58662;BME280;44432;49.786;22.760;2022-09-13T13:51:20;98851.29;;;20.49;43.24
58662;BME280;44432;49.786;22.760;2022-09-13T13:53:58;98850.06;;;20.57;43.51